sensor_id;sensor_type;location;lat;lon;timestamp;P1;durP1;ratioP1;P2;durP2;ratioP2
40254;SDS011;25973;52.368;4.940;2022-09-09T00:03:52;2.42;;;0.75;;
40254;SDS011;25973;52.368;4.940;2022-09-09T00:06:30;4.05;;;1.00;;
40254;SDS011;25973;52.368;4.940;2022-09-09T00:09:14;1.80;;;0.90;;
40254;SDS011;25973;52.368;4.940;2022-09-09T00:11:43;3.85;;;0.90;;
40254;SDS011;25973;52.368;4.940;2022-09-09T00:14:16;6.93;;;2.72;;
40254;SDS011;25973;52.368;4.940;2022-09-09T00:16:54;15.45;;;6.30;;
40254;SDS011;25973;52.368;4.940;2022-09-09T00:22:17;5.35;;;1.70;;
40254;SDS011;25973;52.368;4.940;2022-09-09T00:24:46;7.72;;;2.45;;
40254;SDS011;25973;52.368;4.940;2022-09-09T00:27:26;3.95;;;1.40;;
40254;SDS011;25973;52.368;4.940;2022-09-09T00:30:12;4.15;;;1.70;;
40254;SDS011;25973;52.368;4.940;2022-09-09T00:32:44;3.20;;;1.70;;
40254;SDS011;25973;52.368;4.940;2022-09-09T00:37:47;4.10;;;1.75;;
40254;SDS011;25973;52.368;4.940;2022-09-09T00:40:26;3.72;;;1.60;;
40254;SDS011;25973;52.368;4.940;2022-09-09T00:51:46;6.85;;;2.63;;
40254;SDS011;25973;52.368;4.940;2022-09-09T00:57:34;5.53;;;2.13;;
40254;SDS011;25973;52.368;4.940;2022-09-09T01:00:17;4.32;;;1.77;;
40254;SDS011;25973;52.368;4.940;2022-09-09T01:13:53;8.57;;;3.47;;
40254;SDS011;25973;52.368;4.940;2022-09-09T01:16:25;9.90;;;6.35;;
40254;SDS011;25973;52.368;4.940;2022-09-09T01:18:53;7.43;;;4.25;;
40254;SDS011;25973;52.368;4.940;2022-09-09T01:21:32;7.63;;;2.75;;
40254;SDS011;25973;52.368;4.940;2022-09-09T01:26:44;6.72;;;3.03;;
40254;SDS011;25973;52.368;4.940;2022-09-09T01:29:12;8.60;;;3.22;;
40254;SDS011;25973;52.368;4.940;2022-09-09T01:31:42;5.70;;;3.00;;
40254;SDS011;25973;52.368;4.940;2022-09-09T01:34:25;9.07;;;3.80;;
40254;SDS011;25973;52.368;4.940;2022-09-09T01:39:24;8.93;;;4.45;;
40254;SDS011;25973;52.368;4.940;2022-09-09T01:41:50;9.50;;;4.70;;
40254;SDS011;25973;52.368;4.940;2022-09-09T01:44:16;8.00;;;3.72;;
40254;SDS011;25973;52.368;4.940;2022-09-09T01:46:43;5.43;;;3.38;;
40254;SDS011;25973;52.368;4.940;2022-09-09T01:49:09;6.70;;;3.75;;
40254;SDS011;25973;52.368;4.940;2022-09-09T01:51:36;9.48;;;3.72;;
40254;SDS011;25973;52.368;4.940;2022-09-09T01:54:04;6.07;;;3.60;;
40254;SDS011;25973;52.368;4.940;2022-09-09T01:59:43;7.55;;;4.03;;
40254;SDS011;25973;52.368;4.940;2022-09-09T02:02:18;8.18;;;4.53;;
40254;SDS011;25973;52.368;4.940;2022-09-09T02:04:52;10.70;;;4.50;;
40254;SDS011;25973;52.368;4.940;2022-09-09T02:10:10;11.45;;;4.90;;
40254;SDS011;25973;52.368;4.940;2022-09-09T02:12:43;9.05;;;4.20;;
40254;SDS011;25973;52.368;4.940;2022-09-09T02:15:16;12.18;;;4.18;;
40254;SDS011;25973;52.368;4.940;2022-09-09T02:17:53;6.80;;;4.05;;
40254;SDS011;25973;52.368;4.940;2022-09-09T02:20:23;7.85;;;4.70;;
40254;SDS011;25973;52.368;4.940;2022-09-09T02:22:52;9.48;;;4.93;;
40254;SDS011;25973;52.368;4.940;2022-09-09T02:25:19;8.68;;;3.97;;
40254;SDS011;25973;52.368;4.940;2022-09-09T02:27:48;6.30;;;4.13;;
40254;SDS011;25973;52.368;4.940;2022-09-09T02:30:16;10.32;;;4.43;;
40254;SDS011;25973;52.368;4.940;2022-09-09T02:32:43;9.65;;;3.90;;
40254;SDS011;25973;52.368;4.940;2022-09-09T02:35:15;10.80;;;4.00;;
40254;SDS011;25973;52.368;4.940;2022-09-09T02:37:44;10.15;;;4.63;;
40254;SDS011;25973;52.368;4.940;2022-09-09T02:40:12;7.85;;;3.85;;
40254;SDS011;25973;52.368;4.940;2022-09-09T02:42:40;13.30;;;4.70;;
40254;SDS011;25973;52.368;4.940;2022-09-09T02:45:08;10.43;;;4.88;;
40254;SDS011;25973;52.368;4.940;2022-09-09T02:50:29;9.50;;;4.55;;
40254;SDS011;25973;52.368;4.940;2022-09-09T02:53:19;8.65;;;3.70;;
40254;SDS011;25973;52.368;4.940;2022-09-09T02:56:05;8.23;;;4.10;;
40254;SDS011;25973;52.368;4.940;2022-09-09T02:58:38;8.73;;;4.68;;
40254;SDS011;25973;52.368;4.940;2022-09-09T03:01:04;7.55;;;4.05;;
40254;SDS011;25973;52.368;4.940;2022-09-09T03:03:33;7.80;;;4.63;;
40254;SDS011;25973;52.368;4.940;2022-09-09T03:05:59;7.20;;;4.07;;
40254;SDS011;25973;52.368;4.940;2022-09-09T03:08:25;8.73;;;3.92;;
40254;SDS011;25973;52.368;4.940;2022-09-09T03:10:53;6.20;;;3.80;;
40254;SDS011;25973;52.368;4.940;2022-09-09T03:13:19;9.57;;;3.97;;
40254;SDS011;25973;52.368;4.940;2022-09-09T03:15:45;9.70;;;4.00;;
40254;SDS011;25973;52.368;4.940;2022-09-09T03:18:10;12.70;;;5.50;;
40254;SDS011;25973;52.368;4.940;2022-09-09T03:20:36;12.55;;;4.53;;
40254;SDS011;25973;52.368;4.940;2022-09-09T03:23:01;7.05;;;4.45;;
40254;SDS011;25973;52.368;4.940;2022-09-09T03:25:27;6.72;;;4.20;;
40254;SDS011;25973;52.368;4.940;2022-09-09T03:27:53;11.10;;;3.88;;
40254;SDS011;25973;52.368;4.940;2022-09-09T03:30:23;13.25;;;5.03;;
40254;SDS011;25973;52.368;4.940;2022-09-09T03:32:50;10.33;;;5.13;;
40254;SDS011;25973;52.368;4.940;2022-09-09T03:35:16;13.75;;;4.35;;
40254;SDS011;25973;52.368;4.940;2022-09-09T03:37:42;6.82;;;4.25;;
40254;SDS011;25973;52.368;4.940;2022-09-09T03:40:07;7.78;;;4.57;;
40254;SDS011;25973;52.368;4.940;2022-09-09T03:42:35;11.98;;;4.85;;
40254;SDS011;25973;52.368;4.940;2022-09-09T03:45:02;9.45;;;4.50;;
40254;SDS011;25973;52.368;4.940;2022-09-09T03:47:31;10.23;;;4.68;;
40254;SDS011;25973;52.368;4.940;2022-09-09T03:49:56;10.90;;;4.63;;
40254;SDS011;25973;52.368;4.940;2022-09-09T03:52:22;9.93;;;5.25;;
40254;SDS011;25973;52.368;4.940;2022-09-09T03:54:50;11.88;;;5.28;;
40254;SDS011;25973;52.368;4.940;2022-09-09T03:57:16;8.70;;;4.30;;
40254;SDS011;25973;52.368;4.940;2022-09-09T03:59:42;10.27;;;5.03;;
40254;SDS011;25973;52.368;4.940;2022-09-09T04:02:08;8.73;;;4.25;;
40254;SDS011;25973;52.368;4.940;2022-09-09T04:04:34;11.73;;;5.35;;
40254;SDS011;25973;52.368;4.940;2022-09-09T04:06:59;9.23;;;4.85;;
40254;SDS011;25973;52.368;4.940;2022-09-09T04:09:25;10.73;;;4.80;;
40254;SDS011;25973;52.368;4.940;2022-09-09T04:11:51;10.63;;;5.45;;
40254;SDS011;25973;52.368;4.940;2022-09-09T04:14:18;9.10;;;4.40;;
40254;SDS011;25973;52.368;4.940;2022-09-09T04:16:44;10.18;;;4.40;;
40254;SDS011;25973;52.368;4.940;2022-09-09T04:19:10;12.90;;;4.63;;
40254;SDS011;25973;52.368;4.940;2022-09-09T04:21:39;9.63;;;4.30;;
40254;SDS011;25973;52.368;4.940;2022-09-09T04:24:06;9.20;;;4.00;;
40254;SDS011;25973;52.368;4.940;2022-09-09T04:26:33;7.60;;;4.80;;
40254;SDS011;25973;52.368;4.940;2022-09-09T04:28:59;7.40;;;4.10;;
40254;SDS011;25973;52.368;4.940;2022-09-09T04:31:25;11.95;;;4.10;;
40254;SDS011;25973;52.368;4.940;2022-09-09T04:33:50;7.18;;;3.72;;
40254;SDS011;25973;52.368;4.940;2022-09-09T04:36:17;10.00;;;3.72;;
40254;SDS011;25973;52.368;4.940;2022-09-09T04:38:44;7.88;;;3.90;;
40254;SDS011;25973;52.368;4.940;2022-09-09T04:41:10;9.73;;;3.70;;
40254;SDS011;25973;52.368;4.940;2022-09-09T04:43:40;8.68;;;3.40;;
40254;SDS011;25973;52.368;4.940;2022-09-09T04:46:05;10.95;;;3.58;;
40254;SDS011;25973;52.368;4.940;2022-09-09T04:48:31;9.98;;;3.70;;
40254;SDS011;25973;52.368;4.940;2022-09-09T04:51:07;9.10;;;3.55;;
40254;SDS011;25973;52.368;4.940;2022-09-09T04:53:35;4.30;;;2.50;;
40254;SDS011;25973;52.368;4.940;2022-09-09T04:58:38;6.07;;;2.97;;
40254;SDS011;25973;52.368;4.940;2022-09-09T05:01:08;5.40;;;2.75;;
40254;SDS011;25973;52.368;4.940;2022-09-09T05:06:06;7.00;;;2.33;;
40254;SDS011;25973;52.368;4.940;2022-09-09T05:08:34;5.18;;;2.67;;
40254;SDS011;25973;52.368;4.940;2022-09-09T05:11:14;6.90;;;3.22;;
40254;SDS011;25973;52.368;4.940;2022-09-09T05:13:41;4.75;;;2.17;;
40254;SDS011;25973;52.368;4.940;2022-09-09T05:16:07;6.57;;;3.03;;
40254;SDS011;25973;52.368;4.940;2022-09-09T05:21:04;8.52;;;2.35;;
40254;SDS011;25973;52.368;4.940;2022-09-09T05:23:31;8.00;;;2.70;;
40254;SDS011;25973;52.368;4.940;2022-09-09T05:25:58;3.80;;;2.10;;
40254;SDS011;25973;52.368;4.940;2022-09-09T05:28:25;5.38;;;2.15;;
40254;SDS011;25973;52.368;4.940;2022-09-09T05:30:55;4.88;;;1.98;;
40254;SDS011;25973;52.368;4.940;2022-09-09T05:33:22;6.50;;;2.30;;
40254;SDS011;25973;52.368;4.940;2022-09-09T05:35:54;10.75;;;2.20;;
40254;SDS011;25973;52.368;4.940;2022-09-09T05:38:23;7.80;;;1.80;;
40254;SDS011;25973;52.368;4.940;2022-09-09T05:40:52;5.85;;;2.00;;
40254;SDS011;25973;52.368;4.940;2022-09-09T05:43:18;6.20;;;2.05;;
40254;SDS011;25973;52.368;4.940;2022-09-09T05:45:47;7.80;;;2.28;;
40254;SDS011;25973;52.368;4.940;2022-09-09T05:48:14;6.38;;;2.08;;
40254;SDS011;25973;52.368;4.940;2022-09-09T05:50:41;6.32;;;1.92;;
40254;SDS011;25973;52.368;4.940;2022-09-09T05:53:07;10.82;;;2.30;;
40254;SDS011;25973;52.368;4.940;2022-09-09T05:55:33;6.07;;;1.80;;
40254;SDS011;25973;52.368;4.940;2022-09-09T05:57:59;14.18;;;2.80;;
40254;SDS011;25973;52.368;4.940;2022-09-09T06:00:26;5.40;;;2.25;;
40254;SDS011;25973;52.368;4.940;2022-09-09T06:02:52;7.30;;;1.98;;
40254;SDS011;25973;52.368;4.940;2022-09-09T06:05:18;3.90;;;1.83;;
40254;SDS011;25973;52.368;4.940;2022-09-09T06:07:44;6.45;;;1.75;;
40254;SDS011;25973;52.368;4.940;2022-09-09T06:10:11;7.95;;;1.95;;
40254;SDS011;25973;52.368;4.940;2022-09-09T06:12:38;4.93;;;1.98;;
40254;SDS011;25973;52.368;4.940;2022-09-09T06:15:04;5.90;;;1.88;;
40254;SDS011;25973;52.368;4.940;2022-09-09T06:17:34;6.88;;;1.90;;
40254;SDS011;25973;52.368;4.940;2022-09-09T06:19:59;6.93;;;1.75;;
40254;SDS011;25973;52.368;4.940;2022-09-09T06:22:25;7.32;;;1.50;;
40254;SDS011;25973;52.368;4.940;2022-09-09T06:24:50;11.55;;;2.08;;
40254;SDS011;25973;52.368;4.940;2022-09-09T06:27:16;11.80;;;2.25;;
40254;SDS011;25973;52.368;4.940;2022-09-09T06:29:44;4.93;;;2.05;;
40254;SDS011;25973;52.368;4.940;2022-09-09T06:32:10;5.35;;;1.30;;
40254;SDS011;25973;52.368;4.940;2022-09-09T06:34:35;5.28;;;1.95;;
40254;SDS011;25973;52.368;4.940;2022-09-09T06:37:01;6.82;;;2.03;;
40254;SDS011;25973;52.368;4.940;2022-09-09T06:39:27;9.38;;;2.60;;
40254;SDS011;25973;52.368;4.940;2022-09-09T06:41:53;7.90;;;2.88;;
40254;SDS011;25973;52.368;4.940;2022-09-09T06:44:19;9.18;;;1.77;;
40254;SDS011;25973;52.368;4.940;2022-09-09T06:46:45;5.85;;;1.48;;
40254;SDS011;25973;52.368;4.940;2022-09-09T06:49:12;7.78;;;1.70;;
40254;SDS011;25973;52.368;4.940;2022-09-09T06:51:38;9.82;;;1.83;;
40254;SDS011;25973;52.368;4.940;2022-09-09T06:54:07;7.43;;;1.85;;
40254;SDS011;25973;52.368;4.940;2022-09-09T06:56:34;7.82;;;2.85;;
40254;SDS011;25973;52.368;4.940;2022-09-09T06:59:02;4.82;;;1.33;;
40254;SDS011;25973;52.368;4.940;2022-09-09T07:01:31;9.30;;;1.85;;
40254;SDS011;25973;52.368;4.940;2022-09-09T07:03:59;7.88;;;1.48;;
40254;SDS011;25973;52.368;4.940;2022-09-09T07:06:29;5.90;;;2.40;;
40254;SDS011;25973;52.368;4.940;2022-09-09T07:08:56;7.53;;;1.90;;
40254;SDS011;25973;52.368;4.940;2022-09-09T07:11:24;6.55;;;1.50;;
40254;SDS011;25973;52.368;4.940;2022-09-09T07:13:52;7.13;;;2.40;;
40254;SDS011;25973;52.368;4.940;2022-09-09T07:16:19;9.10;;;2.00;;
40254;SDS011;25973;52.368;4.940;2022-09-09T07:18:45;9.32;;;1.95;;
40254;SDS011;25973;52.368;4.940;2022-09-09T07:21:12;8.82;;;2.10;;
40254;SDS011;25973;52.368;4.940;2022-09-09T07:23:38;8.18;;;1.80;;
40254;SDS011;25973;52.368;4.940;2022-09-09T07:26:12;12.45;;;1.83;;
40254;SDS011;25973;52.368;4.940;2022-09-09T07:28:40;6.15;;;1.40;;
40254;SDS011;25973;52.368;4.940;2022-09-09T07:31:07;7.80;;;1.35;;
40254;SDS011;25973;52.368;4.940;2022-09-09T07:33:40;4.40;;;2.10;;
40254;SDS011;25973;52.368;4.940;2022-09-09T07:36:09;7.10;;;2.47;;
40254;SDS011;25973;52.368;4.940;2022-09-09T07:38:50;5.82;;;1.95;;
40254;SDS011;25973;52.368;4.940;2022-09-09T07:41:19;6.30;;;1.95;;
40254;SDS011;25973;52.368;4.940;2022-09-09T07:43:46;8.98;;;2.30;;
40254;SDS011;25973;52.368;4.940;2022-09-09T07:46:13;7.43;;;2.20;;
40254;SDS011;25973;52.368;4.940;2022-09-09T07:48:44;11.55;;;3.38;;
40254;SDS011;25973;52.368;4.940;2022-09-09T07:51:16;10.18;;;2.13;;
40254;SDS011;25973;52.368;4.940;2022-09-09T07:53:45;5.93;;;2.08;;
40254;SDS011;25973;52.368;4.940;2022-09-09T07:56:12;7.95;;;2.75;;
40254;SDS011;25973;52.368;4.940;2022-09-09T07:58:40;5.10;;;2.08;;
40254;SDS011;25973;52.368;4.940;2022-09-09T08:01:09;11.45;;;2.30;;
40254;SDS011;25973;52.368;4.940;2022-09-09T08:03:38;5.80;;;2.75;;
40254;SDS011;25973;52.368;4.940;2022-09-09T08:06:04;21.50;;;3.10;;
40254;SDS011;25973;52.368;4.940;2022-09-09T08:08:36;11.48;;;2.30;;
40254;SDS011;25973;52.368;4.940;2022-09-09T08:11:12;3.47;;;2.05;;
40254;SDS011;25973;52.368;4.940;2022-09-09T08:13:39;13.02;;;2.60;;
40254;SDS011;25973;52.368;4.940;2022-09-09T08:16:06;16.40;;;2.60;;
40254;SDS011;25973;52.368;4.940;2022-09-09T08:18:33;9.07;;;2.75;;
40254;SDS011;25973;52.368;4.940;2022-09-09T08:21:12;11.85;;;2.40;;
40254;SDS011;25973;52.368;4.940;2022-09-09T08:23:42;7.35;;;1.90;;
40254;SDS011;25973;52.368;4.940;2022-09-09T08:26:20;10.02;;;2.67;;
40254;SDS011;25973;52.368;4.940;2022-09-09T08:28:51;7.47;;;2.20;;
40254;SDS011;25973;52.368;4.940;2022-09-09T08:31:21;11.00;;;2.50;;
40254;SDS011;25973;52.368;4.940;2022-09-09T08:33:49;10.32;;;3.08;;
40254;SDS011;25973;52.368;4.940;2022-09-09T08:36:19;13.70;;;2.70;;
40254;SDS011;25973;52.368;4.940;2022-09-09T08:38:50;8.48;;;2.90;;
40254;SDS011;25973;52.368;4.940;2022-09-09T08:41:29;10.05;;;2.72;;
40254;SDS011;25973;52.368;4.940;2022-09-09T08:44:06;10.43;;;3.20;;
40254;SDS011;25973;52.368;4.940;2022-09-09T08:57:51;9.80;;;2.38;;
40254;SDS011;25973;52.368;4.940;2022-09-09T09:00:19;10.82;;;2.35;;
40254;SDS011;25973;52.368;4.940;2022-09-09T09:02:54;9.95;;;2.65;;
40254;SDS011;25973;52.368;4.940;2022-09-09T09:05:51;8.30;;;2.70;;
40254;SDS011;25973;52.368;4.940;2022-09-09T09:08:32;10.43;;;2.47;;
40254;SDS011;25973;52.368;4.940;2022-09-09T09:11:21;8.93;;;2.30;;
40254;SDS011;25973;52.368;4.940;2022-09-09T09:14:01;11.13;;;3.13;;
40254;SDS011;25973;52.368;4.940;2022-09-09T09:16:34;13.13;;;3.67;;
40254;SDS011;25973;52.368;4.940;2022-09-09T09:19:08;13.82;;;3.08;;
40254;SDS011;25973;52.368;4.940;2022-09-09T09:21:42;5.40;;;2.05;;
40254;SDS011;25973;52.368;4.940;2022-09-09T09:24:20;8.38;;;2.67;;
40254;SDS011;25973;52.368;4.940;2022-09-09T09:26:50;9.52;;;3.38;;
40254;SDS011;25973;52.368;4.940;2022-09-09T09:29:18;10.30;;;2.33;;
40254;SDS011;25973;52.368;4.940;2022-09-09T09:31:52;8.38;;;2.30;;
40254;SDS011;25973;52.368;4.940;2022-09-09T09:34:20;11.48;;;3.25;;
40254;SDS011;25973;52.368;4.940;2022-09-09T09:36:52;16.45;;;3.25;;
40254;SDS011;25973;52.368;4.940;2022-09-09T09:39:26;6.63;;;2.40;;
40254;SDS011;25973;52.368;4.940;2022-09-09T09:41:54;8.32;;;2.20;;
40254;SDS011;25973;52.368;4.940;2022-09-09T09:44:21;9.95;;;4.70;;
40254;SDS011;25973;52.368;4.940;2022-09-09T09:46:52;10.63;;;5.60;;
40254;SDS011;25973;52.368;4.940;2022-09-09T09:49:30;5.00;;;2.38;;
40254;SDS011;25973;52.368;4.940;2022-09-09T09:52:02;7.18;;;2.28;;
40254;SDS011;25973;52.368;4.940;2022-09-09T09:54:30;11.60;;;1.80;;
40254;SDS011;25973;52.368;4.940;2022-09-09T09:57:16;5.28;;;2.20;;
40254;SDS011;25973;52.368;4.940;2022-09-09T09:59:42;10.43;;;2.13;;
40254;SDS011;25973;52.368;4.940;2022-09-09T10:07:28;7.60;;;1.73;;
40254;SDS011;25973;52.368;4.940;2022-09-09T10:09:55;6.70;;;1.95;;
40254;SDS011;25973;52.368;4.940;2022-09-09T10:12:30;12.18;;;2.92;;
40254;SDS011;25973;52.368;4.940;2022-09-09T10:18:18;8.35;;;1.83;;
40254;SDS011;25973;52.368;4.940;2022-09-09T10:23:42;4.72;;;1.23;;
40254;SDS011;25973;52.368;4.940;2022-09-09T10:37:07;8.80;;;1.92;;
40254;SDS011;25973;52.368;4.940;2022-09-09T10:40:00;8.63;;;1.42;;
40254;SDS011;25973;52.368;4.940;2022-09-09T10:42:41;9.15;;;1.20;;
40254;SDS011;25973;52.368;4.940;2022-09-09T10:50:26;7.35;;;2.03;;
40254;SDS011;25973;52.368;4.940;2022-09-09T10:53:08;13.82;;;2.05;;
40254;SDS011;25973;52.368;4.940;2022-09-09T10:55:45;6.13;;;1.10;;
40254;SDS011;25973;52.368;4.940;2022-09-09T10:58:24;4.38;;;1.35;;
40254;SDS011;25973;52.368;4.940;2022-09-09T11:00:56;5.68;;;1.52;;
40254;SDS011;25973;52.368;4.940;2022-09-09T11:03:32;5.38;;;1.35;;
40254;SDS011;25973;52.368;4.940;2022-09-09T11:06:10;7.13;;;1.70;;
40254;SDS011;25973;52.368;4.940;2022-09-09T11:08:40;5.95;;;1.25;;
40254;SDS011;25973;52.368;4.940;2022-09-09T11:19:11;3.50;;;1.08;;
40254;SDS011;25973;52.368;4.940;2022-09-09T11:21:40;3.88;;;1.15;;
40254;SDS011;25973;52.368;4.940;2022-09-09T11:24:52;4.47;;;1.55;;
40254;SDS011;25973;52.368;4.940;2022-09-09T11:27:02;5.25;;;1.10;;
40254;SDS011;25973;52.368;4.940;2022-09-09T11:32:33;5.30;;;1.33;;
40254;SDS011;25973;52.368;4.940;2022-09-09T11:37:45;3.50;;;1.20;;
40254;SDS011;25973;52.368;4.940;2022-09-09T11:40:24;8.60;;;1.70;;
40254;SDS011;25973;52.368;4.940;2022-09-09T11:43:03;4.15;;;1.23;;
40254;SDS011;25973;52.368;4.940;2022-09-09T11:45:37;3.65;;;1.33;;
40254;SDS011;25973;52.368;4.940;2022-09-09T11:48:04;5.60;;;1.10;;
40254;SDS011;25973;52.368;4.940;2022-09-09T11:50:34;8.23;;;1.67;;
40254;SDS011;25973;52.368;4.940;2022-09-09T11:55:39;3.72;;;1.10;;
40254;SDS011;25973;52.368;4.940;2022-09-09T11:58:05;4.45;;;0.90;;
40254;SDS011;25973;52.368;4.940;2022-09-09T12:00:44;4.78;;;1.15;;
40254;SDS011;25973;52.368;4.940;2022-09-09T12:06:17;2.22;;;0.82;;
40254;SDS011;25973;52.368;4.940;2022-09-09T12:08:55;3.40;;;1.48;;
40254;SDS011;25973;52.368;4.940;2022-09-09T12:11:42;2.30;;;1.27;;
40254;SDS011;25973;52.368;4.940;2022-09-09T12:14:18;3.33;;;0.80;;
40254;SDS011;25973;52.368;4.940;2022-09-09T12:16:46;3.78;;;1.35;;
40254;SDS011;25973;52.368;4.940;2022-09-09T12:24:47;3.90;;;0.82;;
40254;SDS011;25973;52.368;4.940;2022-09-09T12:27:33;3.05;;;1.17;;
40254;SDS011;25973;52.368;4.940;2022-09-09T12:30:16;6.43;;;1.65;;
40254;SDS011;25973;52.368;4.940;2022-09-09T12:32:42;4.53;;;1.33;;
40254;SDS011;25973;52.368;4.940;2022-09-09T12:35:11;5.35;;;2.00;;
40254;SDS011;25973;52.368;4.940;2022-09-09T12:37:52;2.78;;;1.35;;
40254;SDS011;25973;52.368;4.940;2022-09-09T12:40:28;5.18;;;1.30;;
40254;SDS011;25973;52.368;4.940;2022-09-09T12:43:00;6.75;;;1.30;;
40254;SDS011;25973;52.368;4.940;2022-09-09T12:45:27;2.10;;;1.20;;
40254;SDS011;25973;52.368;4.940;2022-09-09T12:48:06;2.75;;;1.52;;
40254;SDS011;25973;52.368;4.940;2022-09-09T12:53:31;5.35;;;1.30;;
40254;SDS011;25973;52.368;4.940;2022-09-09T12:56:05;2.38;;;1.27;;
40254;SDS011;25973;52.368;4.940;2022-09-09T12:58:33;6.03;;;1.90;;
40254;SDS011;25973;52.368;4.940;2022-09-09T13:01:01;2.88;;;1.48;;
40254;SDS011;25973;52.368;4.940;2022-09-09T13:03:30;4.35;;;1.33;;
40254;SDS011;25973;52.368;4.940;2022-09-09T13:05:57;5.85;;;1.88;;
40254;SDS011;25973;52.368;4.940;2022-09-09T13:08:36;4.45;;;1.98;;
40254;SDS011;25973;52.368;4.940;2022-09-09T13:11:03;3.50;;;2.00;;
40254;SDS011;25973;52.368;4.940;2022-09-09T13:13:38;1.75;;;1.40;;
40254;SDS011;25973;52.368;4.940;2022-09-09T13:16:07;2.85;;;1.55;;
40254;SDS011;25973;52.368;4.940;2022-09-09T13:19:02;5.75;;;1.80;;
40254;SDS011;25973;52.368;4.940;2022-09-09T13:21:36;6.45;;;1.70;;
40254;SDS011;25973;52.368;4.940;2022-09-09T13:24:06;7.18;;;1.95;;
40254;SDS011;25973;52.368;4.940;2022-09-09T13:27:20;5.97;;;2.33;;
40254;SDS011;25973;52.368;4.940;2022-09-09T13:29:53;3.25;;;1.75;;
40254;SDS011;25973;52.368;4.940;2022-09-09T13:32:22;7.47;;;2.55;;
40254;SDS011;25973;52.368;4.940;2022-09-09T13:34:57;7.57;;;1.83;;
40254;SDS011;25973;52.368;4.940;2022-09-09T13:40:03;3.53;;;1.80;;
40254;SDS011;25973;52.368;4.940;2022-09-09T13:42:35;3.17;;;2.05;;
40254;SDS011;25973;52.368;4.940;2022-09-09T13:45:14;3.30;;;1.80;;
40254;SDS011;25973;52.368;4.940;2022-09-09T13:47:45;5.53;;;1.83;;
40254;SDS011;25973;52.368;4.940;2022-09-09T13:50:26;9.88;;;2.03;;
40254;SDS011;25973;52.368;4.940;2022-09-09T13:52:53;3.55;;;1.95;;
40254;SDS011;25973;52.368;4.940;2022-09-09T13:55:24;6.20;;;1.65;;
40254;SDS011;25973;52.368;4.940;2022-09-09T13:58:00;3.97;;;1.58;;
40254;SDS011;25973;52.368;4.940;2022-09-09T14:00:29;5.88;;;2.08;;
40254;SDS011;25973;52.368;4.940;2022-09-09T14:02:56;9.70;;;1.85;;
40254;SDS011;25973;52.368;4.940;2022-09-09T14:05:21;4.47;;;1.63;;
40254;SDS011;25973;52.368;4.940;2022-09-09T14:07:47;12.68;;;5.07;;
40254;SDS011;25973;52.368;4.940;2022-09-09T14:10:14;21.05;;;8.20;;
40254;SDS011;25973;52.368;4.940;2022-09-09T14:12:40;8.73;;;3.85;;
40254;SDS011;25973;52.368;4.940;2022-09-09T14:15:09;13.02;;;2.58;;
40254;SDS011;25973;52.368;4.940;2022-09-09T14:17:36;7.30;;;3.22;;
40254;SDS011;25973;52.368;4.940;2022-09-09T14:20:05;2.63;;;1.42;;
40254;SDS011;25973;52.368;4.940;2022-09-09T14:22:34;5.38;;;1.60;;
40254;SDS011;25973;52.368;4.940;2022-09-09T14:25:00;10.07;;;4.80;;
40254;SDS011;25973;52.368;4.940;2022-09-09T14:27:26;4.40;;;2.00;;
40254;SDS011;25973;52.368;4.940;2022-09-09T14:29:52;8.05;;;2.38;;
40254;SDS011;25973;52.368;4.940;2022-09-09T14:32:18;9.13;;;1.40;;
40254;SDS011;25973;52.368;4.940;2022-09-09T14:34:44;7.97;;;1.55;;
40254;SDS011;25973;52.368;4.940;2022-09-09T14:37:10;5.70;;;2.22;;
40254;SDS011;25973;52.368;4.940;2022-09-09T14:39:35;6.13;;;1.92;;
40254;SDS011;25973;52.368;4.940;2022-09-09T14:42:01;4.00;;;1.10;;
40254;SDS011;25973;52.368;4.940;2022-09-09T14:44:27;7.18;;;1.55;;
40254;SDS011;25973;52.368;4.940;2022-09-09T14:46:53;4.75;;;1.70;;
40254;SDS011;25973;52.368;4.940;2022-09-09T14:49:19;7.32;;;2.38;;
40254;SDS011;25973;52.368;4.940;2022-09-09T14:51:45;3.00;;;1.35;;
40254;SDS011;25973;52.368;4.940;2022-09-09T14:54:10;7.43;;;1.65;;
40254;SDS011;25973;52.368;4.940;2022-09-09T14:56:36;6.88;;;2.70;;
40254;SDS011;25973;52.368;4.940;2022-09-09T14:59:02;8.98;;;1.73;;
40254;SDS011;25973;52.368;4.940;2022-09-09T15:01:28;2.60;;;1.08;;
40254;SDS011;25973;52.368;4.940;2022-09-09T15:03:56;3.75;;;0.80;;
40254;SDS011;25973;52.368;4.940;2022-09-09T15:06:24;2.67;;;0.57;;
40254;SDS011;25973;52.368;4.940;2022-09-09T15:08:52;1.80;;;0.88;;
40254;SDS011;25973;52.368;4.940;2022-09-09T15:11:18;3.70;;;1.00;;
40254;SDS011;25973;52.368;4.940;2022-09-09T15:13:45;0.80;;;0.45;;
40254;SDS011;25973;52.368;4.940;2022-09-09T15:16:13;2.47;;;0.70;;
40254;SDS011;25973;52.368;4.940;2022-09-09T15:18:40;1.65;;;0.70;;
40254;SDS011;25973;52.368;4.940;2022-09-09T15:21:08;2.70;;;0.75;;
40254;SDS011;25973;52.368;4.940;2022-09-09T15:23:39;4.75;;;1.33;;
40254;SDS011;25973;52.368;4.940;2022-09-09T15:26:05;4.50;;;1.55;;
40254;SDS011;25973;52.368;4.940;2022-09-09T15:28:31;4.00;;;0.68;;
40254;SDS011;25973;52.368;4.940;2022-09-09T15:31:04;3.97;;;0.60;;
40254;SDS011;25973;52.368;4.940;2022-09-09T15:33:46;3.97;;;1.25;;
40254;SDS011;25973;52.368;4.940;2022-09-09T15:36:20;3.72;;;0.75;;
40254;SDS011;25973;52.368;4.940;2022-09-09T15:38:50;4.80;;;0.80;;
40254;SDS011;25973;52.368;4.940;2022-09-09T15:41:16;2.60;;;1.30;;
40254;SDS011;25973;52.368;4.940;2022-09-09T15:43:52;2.10;;;0.70;;
40254;SDS011;25973;52.368;4.940;2022-09-09T15:46:28;2.20;;;0.95;;
40254;SDS011;25973;52.368;4.940;2022-09-09T15:51:29;2.65;;;1.23;;
40254;SDS011;25973;52.368;4.940;2022-09-09T15:53:55;2.03;;;0.88;;
40254;SDS011;25973;52.368;4.940;2022-09-09T15:56:23;6.55;;;1.45;;
40254;SDS011;25973;52.368;4.940;2022-09-09T15:58:49;6.60;;;0.90;;
40254;SDS011;25973;52.368;4.940;2022-09-09T16:01:15;3.95;;;1.33;;
40254;SDS011;25973;52.368;4.940;2022-09-09T16:03:42;3.20;;;1.23;;
40254;SDS011;25973;52.368;4.940;2022-09-09T16:06:08;3.85;;;1.00;;
40254;SDS011;25973;52.368;4.940;2022-09-09T16:08:35;3.10;;;1.08;;
40254;SDS011;25973;52.368;4.940;2022-09-09T16:11:10;12.77;;;4.88;;
40254;SDS011;25973;52.368;4.940;2022-09-09T16:13:40;5.60;;;2.10;;
40254;SDS011;25973;52.368;4.940;2022-09-09T16:16:07;7.28;;;2.00;;
40254;SDS011;25973;52.368;4.940;2022-09-09T16:18:36;4.55;;;1.45;;
40254;SDS011;25973;52.368;4.940;2022-09-09T16:21:14;4.55;;;1.13;;
40254;SDS011;25973;52.368;4.940;2022-09-09T16:23:51;2.13;;;1.30;;
40254;SDS011;25973;52.368;4.940;2022-09-09T16:26:18;5.55;;;1.48;;
40254;SDS011;25973;52.368;4.940;2022-09-09T16:28:44;9.52;;;1.70;;
40254;SDS011;25973;52.368;4.940;2022-09-09T16:31:12;8.27;;;1.75;;
40254;SDS011;25973;52.368;4.940;2022-09-09T16:33:45;5.35;;;1.75;;
40254;SDS011;25973;52.368;4.940;2022-09-09T16:36:12;5.88;;;1.65;;
40254;SDS011;25973;52.368;4.940;2022-09-09T16:38:40;5.75;;;1.83;;
40254;SDS011;25973;52.368;4.940;2022-09-09T16:41:06;14.18;;;5.30;;
40254;SDS011;25973;52.368;4.940;2022-09-09T16:43:33;8.77;;;1.45;;
40254;SDS011;25973;52.368;4.940;2022-09-09T16:46:01;7.13;;;1.60;;
40254;SDS011;25973;52.368;4.940;2022-09-09T16:48:30;5.38;;;1.17;;
40254;SDS011;25973;52.368;4.940;2022-09-09T16:51:04;7.10;;;2.65;;
40254;SDS011;25973;52.368;4.940;2022-09-09T16:53:34;10.98;;;4.93;;
40254;SDS011;25973;52.368;4.940;2022-09-09T16:56:06;15.98;;;5.68;;
40254;SDS011;25973;52.368;4.940;2022-09-09T16:58:32;20.23;;;9.30;;
40254;SDS011;25973;52.368;4.940;2022-09-09T17:00:58;10.05;;;2.40;;
40254;SDS011;25973;52.368;4.940;2022-09-09T17:03:24;4.22;;;1.30;;
40254;SDS011;25973;52.368;4.940;2022-09-09T17:05:51;6.22;;;1.23;;
40254;SDS011;25973;52.368;4.940;2022-09-09T17:08:16;3.53;;;1.02;;